Time;durP1;ratioP1;P1;durP2;ratioP2;P2;SDS_P1;SDS_P2;PMS_P1;PMS_P2;Temp;Humidity;BMP_temperature;BMP_pressure;BME280_temperature;BME280_humidity;BME280_pressure;Samples;Min_cycle;Max_cycle;Signal;HPM_P1;HPM_P2
2021/11/02 00:00:39;;;;;;;7.97;5.47;;;;;;;9.10;75.16;99664.75;5099621;28;20168;-65
2021/11/02 00:03:05;;;;;;;9.00;6.20;;;;;;;9.42;73.54;99662.97;5100280;28;20173;-65
2021/11/02 00:05:34;;;;;;;8.67;7.70;;;;;;;9.34;73.77;99673.38;5099838;28;20439;-63
2021/11/02 00:08:00;;;;;;;12.20;6.37;;;;;;;9.10;74.93;99679.50;5099624;28;20410;-64
2021/11/02 00:10:25;;;;;;;7.50;6.03;;;;;;;9.04;74.98;99674.31;5100103;28;20437;-63
2021/11/02 00:12:51;;;;;;;6.33;5.73;;;;;;;9.07;75.31;99672.56;5099452;28;20168;-66
2021/11/02 00:15:26;;;;;;;7.33;5.80;;;;;;;9.00;75.30;99676.03;5098943;28;20176;-65
2021/11/02 00:17:54;;;;;;;7.90;5.80;;;;;;;8.73;76.71;99677.78;5081708;28;20264;-66
2021/11/02 00:20:20;;;;;;;9.20;5.80;;;;;;;8.74;76.90;99670.84;5099388;28;20676;-66
2021/11/02 00:22:58;;;;;;;7.20;5.60;;;;;;;8.71;76.63;99673.44;5099686;28;20414;-65
2021/11/02 00:25:30;;;;;;;8.63;6.17;;;;;;;8.68;76.98;99670.88;5099424;28;20454;-64
2021/11/02 00:27:56;;;;;;;7.07;6.33;;;;;;;8.71;76.85;99669.13;5088219;28;20430;-67
2021/11/02 00:30:22;;;;;;;8.47;6.10;;;;;;;8.50;77.25;99666.53;5061490;28;20866;-66
2021/11/02 00:32:50;;;;;;;10.67;6.37;;;;;;;8.65;76.62;99665.69;5078940;28;20419;-65
2021/11/02 00:35:17;;;;;;;10.63;5.90;;;;;;;8.83;76.37;99670.00;5079232;28;20173;-64
2021/11/02 00:37:42;;;;;;;6.90;5.80;;;;;;;8.74;76.38;99669.13;5078684;28;20425;-64
2021/11/02 00:40:09;;;;;;;9.10;5.77;;;;;;;8.65;77.64;99674.31;5078608;28;20431;-63
2021/11/02 00:42:40;;;;;;;10.33;5.93;;;;;;;8.79;77.74;99676.91;5078899;28;20267;-62
2021/11/02 00:45:10;;;;;;;9.00;6.50;;;;;;;8.89;77.01;99667.38;5078697;28;20698;-62
2021/11/02 00:47:35;;;;;;;9.57;6.20;;;;;;;9.00;76.79;99663.03;5078823;28;20416;-62
2021/11/02 00:50:06;;;;;;;9.93;6.27;;;;;;;8.79;77.03;99671.72;5078464;28;20419;-62
2021/11/02 00:52:32;;;;;;;9.33;6.10;;;;;;;8.81;77.43;99669.13;5078595;28;20173;-62
2021/11/02 00:54:58;;;;;;;9.47;6.30;;;;;;;8.95;77.33;99662.19;5079109;28;20406;-62
2021/11/02 00:57:23;;;;;;;6.77;5.60;;;;;;;8.92;76.79;99667.38;5078561;28;20417;-62
2021/11/02 00:59:48;;;;;;;9.60;6.60;;;;;;;8.90;76.23;99667.41;5078674;28;20550;-63
2021/11/02 01:02:14;;;;;;;10.53;6.43;;;;;;;8.90;76.64;99653.50;5078828;28;20222;-62
2021/11/02 01:04:39;;;;;;;12.60;7.70;;;;;;;9.10;76.27;99661.28;5078446;28;20227;-62
2021/11/02 01:07:06;;;;;;;9.17;5.93;;;;;;;9.15;76.08;99654.34;5078361;28;20177;-62
2021/11/02 01:09:32;;;;;;;13.43;6.80;;;;;;;8.69;76.87;99655.28;5078676;28;20169;-62
2021/11/02 01:11:57;;;;;;;8.50;6.27;;;;;;;9.17;75.84;99646.53;5078093;28;20419;-62
2021/11/02 01:14:22;;;;;;;8.63;6.07;;;;;;;8.90;76.69;99646.59;5078180;28;20202;-63
2021/11/02 01:16:48;;;;;;;9.10;6.50;;;;;;;9.15;76.59;99654.34;5078912;28;20558;-63
2021/11/02 01:19:13;;;;;;;7.40;5.40;;;;;;;9.07;76.19;99645.72;5078253;28;20203;-64
2021/11/02 01:21:38;;;;;;;9.27;6.40;;;;;;;9.02;76.15;99647.44;5060919;28;20176;-63
2021/11/02 01:24:04;;;;;;;10.07;6.07;;;;;;;9.27;75.08;99648.25;5078629;28;20252;-63
2021/11/02 01:26:29;;;;;;;10.17;6.40;;;;;;;9.15;75.81;99640.50;5078469;28;20200;-64
2021/11/02 01:28:54;;;;;;;8.17;6.47;;;;;;;9.04;76.14;99640.53;5078391;28;20205;-62
2021/11/02 01:31:20;;;;;;;7.70;6.77;;;;;;;9.04;76.32;99641.38;5078333;28;20527;-62
2021/11/02 01:33:45;;;;;;;8.43;6.80;;;;;;;9.00;76.09;99638.75;5078237;28;20179;-62
2021/11/02 01:36:10;;;;;;;10.53;6.10;;;;;;;8.97;76.10;99636.19;5078142;28;20173;-63
2021/11/02 01:38:36;;;;;;;11.37;7.13;;;;;;;8.76;77.48;99635.34;5078602;28;20247;-63
2021/11/02 01:41:03;;;;;;;7.23;6.53;;;;;;;9.21;75.58;99635.25;5077918;28;20218;-62
2021/11/02 01:43:29;;;;;;;10.20;7.13;;;;;;;9.03;75.95;99634.44;5078129;28;20494;-63
2021/11/02 01:45:54;;;;;;;13.73;6.77;;;;;;;9.31;75.46;99633.50;5078497;28;20457;-64
2021/11/02 01:48:24;;;;;;;8.50;6.30;;;;;;;9.42;74.75;99637.81;5078055;28;20187;-63
2021/11/02 01:50:49;;;;;;;8.37;5.93;;;;;;;9.34;74.71;99636.09;5077751;28;20229;-64
2021/11/02 01:53:15;;;;;;;12.20;6.47;;;;;;;9.47;73.88;99634.31;5078165;28;20415;-64
2021/11/02 01:55:41;;;;;;;6.50;5.90;;;;;;;9.56;73.68;99632.53;5077899;28;20211;-62
2021/11/02 01:58:08;;;;;;;13.27;7.40;;;;;;;9.61;73.72;99632.53;5077851;28;20493;-62
2021/11/02 02:00:34;;;;;;;11.83;6.33;;;;;;;9.43;73.62;99629.13;5078279;28;20523;-62
2021/11/02 02:03:06;;;;;;;10.80;6.20;;;;;;;9.54;73.27;99621.28;5077794;28;20394;-63
2021/11/02 02:05:41;;;;;;;9.90;5.90;;;;;;;9.55;73.18;99619.53;5077850;28;20485;-64
2021/11/02 02:08:15;;;;;;;7.00;6.40;;;;;;;8.90;76.32;99633.59;5060659;28;20446;-63
2021/11/02 02:11:15;;;;;;;7.43;5.60;;;;;;;8.83;76.22;99629.25;5060294;28;20510;-63
2021/11/02 02:13:41;;;;;;;8.93;6.17;;;;;;;8.87;76.70;99635.34;5049075;28;20429;-62
2021/11/02 02:16:18;;;;;;;6.30;5.70;;;;;;;8.98;75.70;99640.50;5077544;28;20414;-62
2021/11/02 02:18:58;;;;;;;9.97;6.70;;;;;;;9.15;74.91;99637.91;5060237;28;20172;-63
2021/11/02 02:21:45;;;;;;;10.20;6.20;;;;;;;8.98;76.83;99643.97;5060254;28;20423;-63
2021/11/02 02:24:15;;;;;;;9.47;6.53;;;;;;;8.80;76.57;99646.63;5077332;28;20482;-62
2021/11/02 02:26:47;;;;;;;9.00;6.10;;;;;;;8.87;77.15;99643.97;5060104;28;20430;-62
2021/11/02 02:29:13;;;;;;;9.23;6.57;;;;;;;8.86;77.67;99637.09;5077473;28;20433;-63
2021/11/02 02:31:41;;;;;;;8.60;6.27;;;;;;;8.97;77.24;99631.88;5059790;28;20767;-63
2021/11/02 02:34:11;;;;;;;10.37;7.10;;;;;;;8.46;78.44;99637.09;5060090;28;20476;-63
2021/11/02 02:36:38;;;;;;;7.70;6.90;;;;;;;8.45;78.23;99629.25;5060583;28;20451;-62
2021/11/02 02:39:03;;;;;;;10.70;7.17;;;;;;;8.59;77.83;99635.34;5063718;28;20435;-62
2021/11/02 02:41:29;;;;;;;8.67;6.23;;;;;;;8.73;78.26;99632.75;5063511;28;20650;-63
2021/11/02 02:43:54;;;;;;;10.03;6.47;;;;;;;8.54;78.44;99637.94;5080898;28;20565;-63
2021/11/02 02:46:20;;;;;;;10.17;6.73;;;;;;;8.87;77.11;99625.78;5081311;28;20176;-63
2021/11/02 02:48:46;;;;;;;13.10;6.40;;;;;;;8.69;77.24;99628.44;5063557;28;20184;-63
2021/11/02 02:51:13;;;;;;;10.00;6.43;;;;;;;8.87;76.60;99628.38;5081602;28;20262;-62
2021/11/02 02:53:43;;;;;;;9.63;6.47;;;;;;;8.48;77.93;99630.16;5100829;28;20410;-62
2021/11/02 02:56:10;;;;;;;12.40;7.40;;;;;;;8.46;77.80;99628.41;5101044;28;20425;-63
2021/11/02 02:58:37;;;;;;;8.30;6.40;;;;;;;8.69;76.96;99629.28;5101047;28;20448;-62
2021/11/02 03:01:05;;;;;;;7.77;6.90;;;;;;;8.72;76.77;99631.03;5100680;28;20434;-63
2021/11/02 03:03:30;;;;;;;9.00;6.47;;;;;;;8.58;77.04;99629.28;5101064;28;20458;-64
2021/11/02 03:06:01;;;;;;;7.90;6.47;;;;;;;9.01;75.93;99624.91;5100132;28;20410;-62
2021/11/02 03:08:27;;;;;;;16.10;8.13;;;;;;;9.06;75.13;99629.22;5083521;28;20210;-62
2021/11/02 03:10:53;;;;;;;13.40;7.83;;;;;;;8.94;75.49;99629.25;5100690;28;20418;-63
2021/11/02 03:13:19;;;;;;;9.40;6.90;;;;;;;9.04;75.11;99622.31;5100693;28;20446;-63
2021/11/02 03:15:51;;;;;;;10.33;6.70;;;;;;;9.06;75.11;99621.41;5101124;28;20438;-62
2021/11/02 03:48:04;;;;;;;11.07;7.90;;;;;;;8.78;75.82;99623.19;5100124;28;20421;-61
2021/11/02 03:49:43;;;;;;;10.97;7.20;;;;;;;8.60;76.90;99624.09;5098919;28;20418;-62
2021/11/02 03:57:07;;;;;;;9.87;7.00;;;;;;;8.55;76.23;99628.41;5099157;28;20393;-63
2021/11/02 04:00:08;;;;;;;9.60;7.30;;;;;;;8.36;77.48;99627.50;5099094;28;20688;-63
2021/11/02 05:48:51;;;;;;;14.10;8.40;;;;;;;8.22;78.80;99632.69;5077881;28;20705;-62
2021/11/02 05:54:07;;;;;;;10.40;8.47;;;;;;;8.22;78.53;99630.09;5077961;28;20426;-62
2021/11/02 05:59:21;;;;;;;12.20;8.43;;;;;;;8.06;78.92;99635.28;5077705;28;20397;-62
2021/11/02 06:04:55;;;;;;;8.53;7.00;;;;;;;7.87;79.55;99639.53;5077583;28;20455;-62
2021/11/02 06:10:18;;;;;;;11.80;7.90;;;;;;;7.79;80.01;99628.28;5060272;28;20415;-62
2021/11/02 06:29:23;;;;;;;10.40;7.67;;;;;;;8.31;78.23;99631.81;5081381;28;20690;-63
2021/11/02 06:35:08;;;;;;;8.43;7.47;;;;;;;8.39;77.64;99645.72;5019958;28;20459;-63
2021/11/02 06:42:56;;;;;;;9.50;7.10;;;;;;;8.88;75.51;99639.69;5081064;28;20268;-63
2021/11/02 06:48:31;;;;;;;12.07;8.50;;;;;;;8.63;75.95;99654.41;5080976;28;20422;-61
2021/11/02 06:51:28;;;;;;;9.60;8.40;;;;;;;8.83;75.61;99657.00;5077536;28;20589;-63
2021/11/02 06:59:55;;;;;;;12.50;8.97;;;;;;;8.91;75.40;99670.84;5100867;28;20465;-62
2021/11/02 07:16:39;;;;;;;13.27;9.33;;;;;;;8.81;74.71;99690.78;5100130;28;20420;-62
2021/11/02 07:19:13;;;;;;;11.47;9.03;;;;;;;8.96;74.84;99702.91;5100571;28;20468;-62
2021/11/02 07:21:55;;;;;;;11.53;9.07;;;;;;;8.98;74.56;99692.50;5100600;28;20392;-62
2021/11/02 07:24:45;;;;;;;15.73;9.10;;;;;;;9.01;74.41;99697.69;5099524;28;20718;-62
2021/11/02 08:48:45;;;;;;;13.50;8.50;;;;;;;10.81;68.18;99670.00;5118543;28;20474;-63
2021/11/02 08:51:10;;;;;;;14.27;8.13;;;;;;;10.56;69.18;99671.94;5118248;28;20466;-63
2021/11/02 08:53:36;;;;;;;11.37;8.00;;;;;;;10.60;68.70;99668.44;5119187;28;20238;-63
2021/11/02 08:56:03;;;;;;;10.53;8.10;;;;;;;10.96;67.72;99658.56;5119025;28;20459;-62
2021/11/02 08:58:30;;;;;;;9.73;8.20;;;;;;;11.56;65.83;99657.91;5119499;28;20178;-63
2021/11/02 09:00:57;;;;;;;12.27;8.13;;;;;;;11.46;65.55;99651.94;5118115;28;20424;-64
2021/11/02 09:03:28;;;;;;;9.47;8.23;;;;;;;11.55;65.54;99655.34;5109891;28;20408;-63
2021/11/02 09:05:55;;;;;;;13.93;8.63;;;;;;;11.36;65.98;99654.69;5098466;28;20687;-62
2021/11/02 09:08:21;;;;;;;13.37;8.50;;;;;;;11.41;65.64;99652.91;5097920;28;20676;-63
2021/11/02 09:10:48;;;;;;;16.83;8.87;;;;;;;10.98;68.52;99662.03;5097742;28;20421;-63
2021/11/02 09:13:14;;;;;;;9.53;8.47;;;;;;;11.74;65.64;99646.38;5097778;28;20410;-63
2021/11/02 09:15:39;;;;;;;19.93;9.00;;;;;;;12.18;63.96;99653.66;5098395;28;20728;-64
2021/11/02 09:18:07;;;;;;;11.37;8.97;;;;;;;12.09;64.13;99649.44;5098797;28;20168;-63
2021/11/02 09:20:33;;;;;;;34.97;12.10;;;;;;;12.14;63.96;99655.47;5098008;28;20196;-63
2021/11/02 09:22:58;;;;;;;15.60;9.43;;;;;;;12.21;64.07;99645.81;5098268;28;20797;-62
2021/11/02 09:25:24;;;;;;;13.97;9.07;;;;;;;12.45;63.30;99649.78;5098686;28;20199;-63
2021/11/02 09:27:50;;;;;;;12.43;8.87;;;;;;;12.21;63.52;99651.03;5098332;28;20168;-63
2021/11/02 09:30:17;;;;;;;16.20;8.90;;;;;;;12.33;63.45;99648.22;5098376;28;20417;-62
2021/11/02 09:32:44;;;;;;;17.30;9.40;;;;;;;12.82;62.38;99648.31;5098650;28;20168;-62
2021/11/02 09:35:11;;;;;;;16.73;9.30;;;;;;;13.02;61.90;99651.44;5098154;28;20414;-65
2021/11/02 09:37:38;;;;;;;12.20;9.10;;;;;;;13.12;61.12;99646.91;5098140;28;20421;-63
2021/11/02 09:40:26;;;;;;;13.47;9.23;;;;;;;13.13;60.85;99646.88;5098665;28;20406;-62
2021/11/02 09:43:23;;;;;;;12.20;9.47;;;;;;;12.87;61.49;99651.72;5098021;28;20414;-64
2021/11/02 09:46:37;;;;;;;11.90;7.80;;;;;;;12.89;61.46;99648.16;5097348;28;20389;-63
2021/11/02 09:49:28;;;;;;;11.10;7.20;;;;;;;13.29;60.65;99644.84;5101910;28;20849;-64
2021/11/02 09:52:02;;;;;;;9.63;8.63;;;;;;;13.62;60.71;99633.75;5101396;28;20898;-65
2021/11/02 09:55:00;;;;;;;9.93;7.23;;;;;;;13.76;58.83;99634.34;5101356;28;20406;-65
2021/11/02 09:57:45;;;;;;;15.10;7.63;;;;;;;14.09;58.10;99637.09;5102171;28;20426;-65
2021/11/02 10:00:27;;;;;;;8.60;6.47;;;;;;;14.13;58.00;99637.91;5102100;28;20657;-64
2021/11/02 10:03:32;;;;;;;9.03;6.67;;;;;;;16.02;53.72;99633.84;5106454;28;20429;-64
2021/11/02 10:06:05;;;;;;;6.40;5.77;;;;;;;15.78;52.42;99625.75;5122495;28;20421;-64
2021/11/02 10:08:47;;;;;;;6.97;5.47;;;;;;;15.02;54.28;99634.00;5121850;28;20806;-64
2021/11/02 10:11:40;;;;;;;7.87;6.03;;;;;;;15.24;53.97;99636.94;5121433;28;20822;-65
2021/11/02 10:14:24;;;;;;;6.60;5.60;;;;;;;14.38;56.63;99638.16;5122338;28;20409;-64
2021/11/02 10:16:57;;;;;;;7.77;5.70;;;;;;;13.77;58.25;99636.06;5121508;28;20418;-63
2021/11/02 10:20:05;;;;;;;9.43;6.60;;;;;;;13.14;59.89;99635.53;5122108;28;20429;-63
2021/11/02 10:22:49;;;;;;;11.23;6.43;;;;;;;13.97;58.08;99632.13;5121972;27;20420;-63
2021/11/02 10:25:47;;;;;;;7.03;6.30;;;;;;;14.07;57.28;99628.44;5121883;28;20464;-65
2021/11/02 10:28:34;;;;;;;10.60;6.47;;;;;;;13.88;57.37;99633.22;5121617;28;20420;-64
2021/11/02 10:31:01;;;;;;;8.53;7.00;;;;;;;13.93;58.40;99633.94;5121610;28;20402;-64
2021/11/02 10:33:33;;;;;;;13.00;7.10;;;;;;;13.88;58.89;99637.56;5121923;28;20642;-63
2021/11/02 10:36:36;;;;;;;11.03;6.70;;;;;;;13.81;58.83;99635.09;5121984;27;20390;-65
2021/11/02 10:39:20;;;;;;;9.40;6.73;;;;;;;14.21;58.01;99640.34;5121952;28;20432;-65
2021/11/02 10:41:59;;;;;;;8.50;7.07;;;;;;;13.98;57.64;99634.72;5126883;28;20493;-64
2021/11/02 10:44:30;;;;;;;10.27;6.67;;;;;;;14.22;57.10;99636.81;5131862;28;20502;-66
2021/11/02 10:47:03;;;;;;;7.80;6.80;;;;;;;14.33;56.63;99634.81;5126476;28;20517;-66
2021/11/02 10:49:38;;;;;;;11.70;7.37;;;;;;;14.28;56.20;99636.69;5127395;28;20417;-67
2021/11/02 10:52:05;;;;;;;7.50;6.43;;;;;;;14.62;55.09;99633.25;5105657;28;20462;-64
2021/11/02 10:54:46;;;;;;;9.33;7.07;;;;;;;14.29;56.20;99628.78;5102163;28;20410;-64
2021/11/02 10:57:48;;;;;;;11.13;7.33;;;;;;;14.36;56.27;99631.28;5083539;28;20414;-64
2021/11/02 11:00:14;;;;;;;11.30;7.37;;;;;;;14.32;55.78;99628.69;5083189;28;20465;-68
2021/11/02 11:02:43;;;;;;;8.47;6.77;;;;;;;14.62;55.01;99631.47;5097990;28;20384;-68
2021/11/02 11:05:09;;;;;;;10.30;7.60;;;;;;;15.05;54.03;99621.69;5080546;28;20470;-67
2021/11/02 11:07:39;;;;;;;7.07;6.43;;;;;;;14.99;54.29;99619.19;5080418;28;20430;-67
2021/11/02 11:10:07;;;;;;;14.30;10.67;;;;;;;15.96;51.63;99615.63;5080817;28;20667;-66
2021/11/02 11:12:36;;;;;;;11.90;7.40;;;;;;;16.30;50.56;99611.94;5080287;28;20423;-68
2021/11/02 11:15:04;;;;;;;9.80;7.37;;;;;;;15.65;52.56;99608.63;5080593;28;20826;-67
2021/11/02 11:17:32;;;;;;;12.27;6.53;;;;;;;17.12;49.05;99610.06;5080751;28;20430;-67
2021/11/02 11:20:11;;;;;;;10.23;7.47;;;;;;;16.84;49.36;99602.25;5080105;28;20496;-65
2021/11/02 11:22:43;;;;;;;8.17;7.00;;;;;;;16.74;49.04;99604.34;5062759;28;20818;-66
2021/11/02 11:25:14;;;;;;;10.07;6.77;;;;;;;16.54;49.18;99594.47;5080065;28;20741;-66
2021/11/02 11:27:51;;;;;;;11.93;7.20;;;;;;;16.74;48.88;99596.44;5080173;28;20407;-69
2021/11/02 11:30:17;;;;;;;10.23;7.03;;;;;;;16.29;50.05;99599.69;5080307;28;20816;-69
2021/11/02 11:32:45;;;;;;;10.60;7.10;;;;;;;16.23;50.45;99599.91;5080120;28;20780;-66
2021/11/02 11:35:11;;;;;;;8.90;6.90;;;;;;;16.28;50.03;99597.97;5080157;28;20419;-68
2021/11/02 11:37:42;;;;;;;7.63;6.80;;;;;;;15.90;51.32;99585.13;5062874;28;20476;-66
2021/11/02 11:40:09;;;;;;;9.50;6.87;;;;;;;15.94;51.28;99599.03;5080595;28;20169;-67
2021/11/02 11:42:36;;;;;;;9.53;6.73;;;;;;;16.43;49.54;99596.63;5062395;28;20418;-67
2021/11/02 11:45:08;;;;;;;9.10;7.70;;;;;;;15.59;51.99;99593.91;5079659;28;20611;-67
2021/11/02 11:47:34;;;;;;;12.47;8.03;;;;;;;14.77;54.12;99590.91;5079765;28;20812;-66
2021/11/02 11:50:15;;;;;;;13.27;7.00;;;;;;;15.62;51.98;99588.56;5079628;28;20419;-66
2021/11/02 11:52:45;;;;;;;7.10;6.50;;;;;;;16.49;49.91;99577.97;5079676;28;20472;-67
2021/11/02 11:55:13;;;;;;;9.30;7.00;;;;;;;15.89;51.78;99585.19;5079818;28;20422;-66
2021/11/02 11:57:38;;;;;;;11.77;7.30;;;;;;;15.86;51.36;99586.13;5079637;28;20419;-66
2021/11/02 12:00:08;;;;;;;10.27;7.67;;;;;;;16.53;49.72;99582.22;5079569;28;20472;-67
2021/11/02 12:02:42;;;;;;;9.33;7.97;;;;;;;15.55;52.35;99591.44;5081365;28;20222;-67
2021/11/02 12:05:17;;;;;;;8.30;7.50;;;;;;;15.65;52.34;99593.75;5082039;28;20488;-67
2021/11/02 12:08:04;;;;;;;12.27;7.47;;;;;;;15.24;53.29;99600.19;5099758;28;20405;-66
2021/11/02 12:10:30;;;;;;;9.47;7.73;;;;;;;15.66;52.75;99599.84;5098512;28;20410;-67
2021/11/02 12:13:00;;;;;;;10.80;8.50;;;;;;;14.58;55.73;99603.59;5065357;28;20422;-68
2021/11/02 12:15:36;;;;;;;9.73;7.80;;;;;;;13.98;57.43;99598.03;5082211;28;20430;-68
2021/11/02 12:18:03;;;;;;;10.20;8.00;;;;;;;14.34;56.43;99605.06;5081640;28;20442;-66
2021/11/02 12:20:28;;;;;;;10.40;8.60;;;;;;;15.66;53.33;99587.56;5081404;28;20910;-67
2021/11/02 12:23:13;;;;;;;10.03;7.53;;;;;;;15.32;54.03;99593.78;5099331;28;20451;-66
2021/11/02 12:25:40;;;;;;;8.80;6.27;;;;;;;15.41;54.70;99589.19;5081251;28;20204;-66
2021/11/02 12:28:24;;;;;;;9.13;6.90;;;;;;;15.38;54.36;99584.03;5082009;28;20392;-66
2021/11/02 12:30:50;;;;;;;8.60;6.97;;;;;;;15.69;53.45;99583.13;5081208;28;20531;-67
2021/11/02 12:33:16;;;;;;;12.77;7.90;;;;;;;15.93;52.30;99587.66;5081837;28;20683;-66
2021/11/02 12:35:48;;;;;;;11.87;7.73;;;;;;;15.44;53.65;99589.97;5081789;28;20414;-66
2021/11/02 12:38:13;;;;;;;7.87;7.00;;;;;;;14.84;55.16;99588.97;5081792;28;20203;-66
2021/11/02 12:40:41;;;;;;;8.30;6.80;;;;;;;14.48;56.45;99587.25;5098784;28;20449;-66
2021/11/02 12:43:29;;;;;;;12.07;7.37;;;;;;;15.23;54.59;99586.16;5099509;28;20176;-67
2021/11/02 12:45:59;;;;;;;8.37;7.20;;;;;;;14.84;55.88;99585.50;5099069;28;20450;-67
2021/11/02 12:48:26;;;;;;;9.50;8.27;;;;;;;15.43;54.15;99580.34;5098959;28;20414;-67
2021/11/02 12:50:52;;;;;;;9.80;7.73;;;;;;;14.78;55.72;99591.78;5098704;28;20470;-67
2021/11/02 12:53:18;;;;;;;7.67;7.07;;;;;;;14.64;56.05;99592.16;5081486;28;20425;-66
2021/11/02 12:55:45;;;;;;;9.90;8.60;;;;;;;14.44;56.94;99593.47;5099130;28;20397;-66
2021/11/02 12:58:11;;;;;;;7.90;7.20;;;;;;;14.59;56.98;99596.63;5081260;28;20500;-66
2021/11/02 13:00:51;;;;;;;7.20;6.50;;;;;;;14.45;56.92;99597.81;5098507;28;20774;-66
2021/11/02 13:03:19;;;;;;;9.70;7.10;;;;;;;14.35;57.89;99596.31;5090560;28;20173;-68
2021/11/02 13:06:06;;;;;;;7.90;7.10;;;;;;;14.19;58.04;99600.19;5078281;28;20452;-68
2021/11/02 13:08:57;;;;;;;13.80;6.90;;;;;;;14.20;58.36;99594.91;5078285;28;20679;-68
2021/11/02 13:11:23;;;;;;;8.60;6.90;;;;;;;14.47;57.46;99588.13;5078357;28;20381;-68
2021/11/02 13:13:57;;;;;;;9.37;6.90;;;;;;;14.31;58.41;99594.66;5061007;28;20879;-68
2021/11/02 13:16:24;;;;;;;6.80;6.10;;;;;;;13.75;59.48;99595.09;5078205;28;20173;-68
2021/11/02 13:18:49;;;;;;;9.20;6.40;;;;;;;13.55;60.33;99593.72;5078116;28;20771;-67
2021/11/02 13:21:29;;;;;;;7.90;6.90;;;;;;;13.78;59.59;99598.47;5078087;28;20171;-65
2021/11/02 13:24:11;;;;;;;8.97;7.50;;;;;;;13.93;58.89;99597.28;5078231;28;20294;-64
2021/11/02 13:26:41;;;;;;;8.50;7.60;;;;;;;13.54;59.55;99599.00;5060874;28;20446;-65
2021/11/02 13:29:26;;;;;;;8.57;6.70;;;;;;;13.86;57.25;99592.22;5060869;28;20399;-64
2021/11/02 13:31:52;;;;;;;8.60;6.10;;;;;;;13.75;57.28;99595.94;5078069;28;20472;-67
2021/11/02 13:34:35;;;;;;;6.27;5.67;;;;;;;13.66;57.50;99600.50;5077988;28;20431;-67
2021/11/02 13:37:01;;;;;;;8.40;6.20;;;;;;;13.78;56.94;99600.25;5077966;28;20473;-66
2021/11/02 13:39:27;;;;;;;7.07;5.47;;;;;;;13.45;58.42;99595.69;5077826;28;20509;-67
2021/11/02 13:41:53;;;;;;;8.00;6.10;;;;;;;14.04;56.64;99591.78;5077813;28;20503;-66
2021/11/02 13:44:19;;;;;;;8.50;5.90;;;;;;;13.56;57.56;99599.84;5078521;28;20189;-66
2021/11/02 13:46:50;;;;;;;7.03;5.33;;;;;;;13.66;57.50;99603.13;5078284;28;20835;-65
2021/11/02 13:49:16;;;;;;;7.83;5.90;;;;;;;13.70;57.84;99597.78;5077942;28;20476;-66
2021/11/02 13:51:42;;;;;;;6.70;5.27;;;;;;;13.69;57.28;99601.28;5077617;28;20458;-66
2021/11/02 13:54:09;;;;;;;6.70;6.00;;;;;;;14.00;57.04;99600.63;5077891;28;20394;-66
2021/11/02 13:56:37;;;;;;;9.43;5.03;;;;;;;15.01;63.23;99593.78;5081451;28;20179;-67
2021/11/02 13:59:05;;;;;;;5.90;5.30;;;;;;;15.17;56.37;99586.38;5083096;28;20416;-64
2021/11/02 14:01:49;;;;;;;9.93;5.33;;;;;;;16.32;57.62;99584.66;5083412;28;20434;-65
2021/11/02 14:04:28;;;;;;;5.80;5.13;;;;;;;17.01;53.16;99583.28;5079692;28;20510;-63
2021/11/02 14:07:05;;;;;;;5.23;4.80;;;;;;;16.23;55.04;99581.50;5098419;28;20693;-61
2021/11/02 14:09:33;;;;;;;6.60;4.73;;;;;;;16.93;57.18;99590.59;5098148;28;20412;-62
2021/11/02 14:12:21;;;;;;;6.17;5.07;;;;;;;16.80;52.65;99582.22;5080203;28;20453;-60
2021/11/02 14:14:46;;;;;;;4.93;4.43;;;;;;;18.41;53.64;99579.69;5097837;28;20410;-61
2021/11/02 14:17:22;;;;;;;7.00;5.00;;;;;;;17.39;50.49;99578.38;5097746;28;20904;-61
2021/11/02 14:19:49;;;;;;;6.13;4.93;;;;;;;16.72;51.81;99585.09;5080510;28;20172;-63
2021/11/02 14:22:35;;;;;;;7.17;5.10;;;;;;;16.53;50.16;99587.50;5097676;28;20428;-62
2021/11/02 14:25:13;;;;;;;8.80;4.93;;;;;;;16.12;51.03;99589.72;5097495;28;20561;-66
2021/11/02 14:27:43;;;;;;;5.30;4.80;;;;;;;14.55;54.85;99595.81;5097394;28;20750;-66
2021/11/02 14:30:14;;;;;;;7.87;5.83;;;;;;;14.04;55.58;99597.03;5097671;28;20413;-66
2021/11/02 14:32:39;;;;;;;10.33;8.17;;;;;;;14.51;54.86;99602.03;5079687;28;20465;-67
2021/11/02 14:35:07;;;;;;;8.00;5.80;;;;;;;14.55;54.79;99600.22;5101458;28;20405;-66
2021/11/02 14:37:52;;;;;;;6.93;5.17;;;;;;;14.24;56.15;99598.34;5101074;28;20188;-67
2021/11/02 14:40:30;;;;;;;5.70;5.20;;;;;;;14.02;56.53;99606.69;5101122;28;20682;-66
2021/11/02 14:43:14;;;;;;;6.70;4.70;;;;;;;13.75;57.33;99606.41;5101317;28;20410;-68
2021/11/02 14:45:54;;;;;;;5.83;5.00;;;;;;;13.87;56.67;99601.78;5101108;28;20515;-67
2021/11/02 14:48:25;;;;;;;6.80;6.13;;;;;;;13.78;57.12;99608.09;5101039;28;20625;-65
2021/11/02 14:50:52;;;;;;;8.40;5.50;;;;;;;14.03;56.72;99610.16;5100604;28;20527;-67
2021/11/02 14:53:31;;;;;;;6.70;5.60;;;;;;;13.72;57.72;99609.09;5100515;28;20422;-66
2021/11/02 14:56:02;;;;;;;7.83;5.50;;;;;;;13.40;58.53;99615.84;5078503;28;20429;-66
2021/11/02 14:58:42;;;;;;;8.87;5.73;;;;;;;13.04;59.45;99622.63;5080351;28;20404;-68
2021/11/02 15:01:12;;;;;;;6.00;5.40;;;;;;;13.18;59.27;99617.13;5080546;28;20410;-67
2021/11/02 15:03:42;;;;;;;8.93;5.67;;;;;;;13.24;59.11;99625.72;5080548;28;20457;-66
2021/11/02 15:06:12;;;;;;;11.90;8.60;;;;;;;13.09;59.68;99620.81;5080340;28;20767;-67
2021/11/02 15:08:40;;;;;;;7.43;6.70;;;;;;;12.88;60.06;99622.94;5060252;28;20406;-65
2021/11/02 15:11:07;;;;;;;9.03;7.37;;;;;;;12.64;61.23;99621.59;5080178;28;20411;-65
2021/11/02 15:13:32;;;;;;;10.90;7.37;;;;;;;12.86;61.30;99631.69;5080073;28;20422;-64
2021/11/02 15:16:00;;;;;;;9.63;6.77;;;;;;;12.86;60.69;99626.47;5080285;28;20411;-65
2021/11/02 15:18:51;;;;;;;9.77;7.60;;;;;;;12.85;61.30;99628.19;5062672;28;20193;-64
2021/11/02 15:21:53;;;;;;;8.13;6.50;;;;;;;12.64;61.92;99622.44;5080000;28;20401;-64
2021/11/02 15:24:19;;;;;;;13.37;8.77;;;;;;;12.88;61.89;99622.03;5058403;28;20491;-64
2021/11/02 15:26:54;;;;;;;8.13;6.90;;;;;;;12.78;61.82;99624.81;5080011;28;20685;-64
2021/11/02 15:29:21;;;;;;;11.83;7.87;;;;;;;12.60;62.38;99623.38;5080554;28;20385;-64
2021/11/02 15:32:02;;;;;;;9.85;8.60;;;;;;;12.32;63.02;99624.72;5067951;28;20543;-64
2021/11/02 15:34:47;;;;;;;15.23;10.50;;;;;;;12.72;62.21;99627.56;5088967;28;20427;-65
2021/11/02 15:37:21;;;;;;;10.40;8.30;;;;;;;12.13;63.83;99618.00;5089881;28;20389;-64
2021/11/02 15:39:49;;;;;;;13.10;8.60;;;;;;;12.39;63.25;99621.97;5080217;28;20556;-67
2021/11/02 15:42:30;;;;;;;12.63;8.00;;;;;;;12.40;63.52;99631.56;5096845;28;20418;-64
2021/11/02 15:45:07;;;;;;;13.30;8.63;;;;;;;12.52;63.13;99634.88;5101100;28;20510;-64
2021/11/02 15:47:37;;;;;;;12.13;8.40;;;;;;;12.29;63.83;99629.09;5100605;28;20427;-67
2021/11/02 15:50:09;;;;;;;9.97;8.30;;;;;;;12.57;63.04;99633.03;5089910;28;20386;-65
2021/11/02 15:52:40;;;;;;;9.10;8.23;;;;;;;12.37;63.72;99630.75;5064373;28;20403;-70
2021/11/02 15:55:20;;;;;;;9.43;7.63;;;;;;;12.19;64.44;99627.53;5065233;28;20861;-66
2021/11/02 15:57:53;;;;;;;10.43;8.10;;;;;;;12.11;64.49;99637.25;5085357;28;20475;-64
2021/11/02 16:00:18;;;;;;;11.23;8.67;;;;;;;12.67;63.25;99633.75;5097702;28;20397;-65
2021/11/02 16:02:46;;;;;;;12.13;9.57;;;;;;;12.27;64.40;99637.84;5045715;28;20405;-64
2021/11/02 16:05:17;;;;;;;10.43;8.20;;;;;;;12.16;64.45;99637.16;5087659;28;20260;-66
2021/11/02 16:07:42;;;;;;;11.10;8.67;;;;;;;12.13;64.43;99633.69;5067300;28;20385;-67
2021/11/02 16:10:08;;;;;;;10.73;9.00;;;;;;;12.26;64.19;99633.53;5079548;28;20429;-65
2021/11/02 16:12:40;;;;;;;14.07;8.70;;;;;;;11.99;65.03;99643.50;5080076;28;20420;-65
2021/11/02 16:15:20;;;;;;;14.30;9.20;;;;;;;12.11;64.82;99643.31;5080936;28;20422;-65
2021/11/02 16:17:48;;;;;;;11.80;9.10;;;;;;;12.06;65.06;99639.91;5100262;28;20449;-65
2021/11/02 16:20:32;;;;;;;10.87;9.87;;;;;;;12.02;65.39;99650.44;5099939;28;20484;-64
2021/11/02 16:22:59;;;;;;;13.27;9.30;;;;;;;11.68;66.10;99643.00;5099593;28;20491;-64
2021/11/02 16:25:27;;;;;;;11.27;9.67;;;;;;;11.84;65.84;99654.09;5099286;28;20518;-66
2021/11/02 16:28:02;;;;;;;13.63;10.23;;;;;;;12.36;64.15;99642.94;5099210;28;20393;-67
2021/11/02 16:30:41;;;;;;;13.77;9.97;;;;;;;12.17;64.83;99644.13;5094654;28;20397;-68
2021/11/02 16:33:08;;;;;;;15.17;10.40;;;;;;;12.11;65.31;99645.94;5061879;28;20403;-67
2021/11/02 16:35:51;;;;;;;15.50;12.20;;;;;;;11.94;65.42;99647.88;5079177;28;20438;-67